sensor_id;sensor_type;location;lat;lon;timestamp;pressure;altitude;pressure_sealevel;temperature;humidity
41706;BME280;27385;51.096;17.190;2024-03-29T00:00:16;98837.48;;;8.60;65.79
41706;BME280;27385;51.096;17.190;2024-03-29T00:03:47;98847.26;;;8.56;65.81
41706;BME280;27385;51.096;17.190;2024-03-29T00:06:39;98856.10;;;8.53;66.07
41706;BME280;27385;51.096;17.190;2024-03-29T00:09:31;98856.39;;;8.50;66.13
41706;BME280;27385;51.096;17.190;2024-03-29T00:12:22;98861.42;;;8.47;66.27
41706;BME280;27385;51.096;17.190;2024-03-29T00:15:14;98869.40;;;8.46;66.36
41706;BME280;27385;51.096;17.190;2024-03-29T00:18:05;98877.43;;;8.44;66.40
41706;BME280;27385;51.096;17.190;2024-03-29T00:20:57;98880.65;;;8.39;66.56
41706;BME280;27385;51.096;17.190;2024-03-29T00:23:49;98886.99;;;8.34;66.54
41706;BME280;27385;51.096;17.190;2024-03-29T00:26:41;98892.13;;;8.30;66.70
41706;BME280;27385;51.096;17.190;2024-03-29T00:29:32;98903.19;;;8.24;66.80
41706;BME280;27385;51.096;17.190;2024-03-29T00:32:24;98910.71;;;8.18;66.98
41706;BME280;27385;51.096;17.190;2024-03-29T00:35:17;98917.55;;;8.13;67.23
41706;BME280;27385;51.096;17.190;2024-03-29T00:38:11;98920.52;;;8.05;67.40
41706;BME280;27385;51.096;17.190;2024-03-29T00:41:04;98926.69;;;7.99;67.48
41706;BME280;27385;51.096;17.190;2024-03-29T00:43:56;98942.35;;;7.93;67.78
41706;BME280;27385;51.096;17.190;2024-03-29T00:46:47;98948.02;;;7.88;67.91
41706;BME280;27385;51.096;17.190;2024-03-29T00:49:38;98953.09;;;7.85;68.08
41706;BME280;27385;51.096;17.190;2024-03-29T00:52:31;98956.67;;;7.79;68.28
41706;BME280;27385;51.096;17.190;2024-03-29T00:55:21;98961.19;;;7.76;68.37
41706;BME280;27385;51.096;17.190;2024-03-29T00:58:13;98972.63;;;7.73;68.66
41706;BME280;27385;51.096;17.190;2024-03-29T01:01:05;98981.63;;;7.69;68.68
41706;BME280;27385;51.096;17.190;2024-03-29T01:03:58;98988.77;;;7.66;68.85
41706;BME280;27385;51.096;17.190;2024-03-29T01:06:50;98998.50;;;7.64;69.03
41706;BME280;27385;51.096;17.190;2024-03-29T01:09:42;99006.98;;;7.60;69.14
41706;BME280;27385;51.096;17.190;2024-03-29T01:12:35;99003.81;;;7.57;69.28
41706;BME280;27385;51.096;17.190;2024-03-29T01:15:28;99010.27;;;7.52;69.41
41706;BME280;27385;51.096;17.190;2024-03-29T01:18:27;99013.33;;;7.50;69.43
41706;BME280;27385;51.096;17.190;2024-03-29T01:21:19;99019.73;;;7.49;69.57
41706;BME280;27385;51.096;17.190;2024-03-29T01:24:11;99019.88;;;7.47;69.64
41706;BME280;27385;51.096;17.190;2024-03-29T01:27:05;99022.73;;;7.46;69.74
41706;BME280;27385;51.096;17.190;2024-03-29T01:29:56;99025.85;;;7.41;69.92
41706;BME280;27385;51.096;17.190;2024-03-29T01:32:49;99024.39;;;7.37;70.10
41706;BME280;27385;51.096;17.190;2024-03-29T01:35:40;99024.66;;;7.34;70.15
41706;BME280;27385;51.096;17.190;2024-03-29T01:38:32;99026.88;;;7.30;70.45
41706;BME280;27385;51.096;17.190;2024-03-29T01:41:23;99025.48;;;7.27;70.45
41706;BME280;27385;51.096;17.190;2024-03-29T01:44:18;99030.27;;;7.22;70.57
41706;BME280;27385;51.096;17.190;2024-03-29T01:47:09;99028.39;;;7.18;70.79
41706;BME280;27385;51.096;17.190;2024-03-29T01:50:01;99023.64;;;7.14;70.88
41706;BME280;27385;51.096;17.190;2024-03-29T01:52:54;99021.77;;;7.10;71.00
41706;BME280;27385;51.096;17.190;2024-03-29T01:55:46;99023.79;;;7.06;71.04
41706;BME280;27385;51.096;17.190;2024-03-29T01:58:39;99024.17;;;7.03;71.16
41706;BME280;27385;51.096;17.190;2024-03-29T02:01:32;99025.17;;;7.01;71.18
41706;BME280;27385;51.096;17.190;2024-03-29T02:04:23;99035.11;;;6.99;71.22
41706;BME280;27385;51.096;17.190;2024-03-29T02:07:15;99029.14;;;6.98;71.28
41706;BME280;27385;51.096;17.190;2024-03-29T02:10:11;99028.74;;;6.98;71.35
41706;BME280;27385;51.096;17.190;2024-03-29T02:13:05;99033.02;;;6.98;71.40
41706;BME280;27385;51.096;17.190;2024-03-29T02:16:00;99031.48;;;6.96;71.51
41706;BME280;27385;51.096;17.190;2024-03-29T02:18:51;99031.61;;;6.95;71.50
41706;BME280;27385;51.096;17.190;2024-03-29T02:21:45;99033.14;;;6.96;71.52
41706;BME280;27385;51.096;17.190;2024-03-29T02:24:39;99036.63;;;6.96;71.53
41706;BME280;27385;51.096;17.190;2024-03-29T02:27:31;99041.60;;;6.95;71.63
41706;BME280;27385;51.096;17.190;2024-03-29T02:30:24;99044.94;;;6.92;71.89
41706;BME280;27385;51.096;17.190;2024-03-29T02:33:15;99051.55;;;6.92;71.97
41706;BME280;27385;51.096;17.190;2024-03-29T02:36:07;99050.69;;;6.92;72.03
41706;BME280;27385;51.096;17.190;2024-03-29T02:39:01;99059.30;;;6.92;71.94
41706;BME280;27385;51.096;17.190;2024-03-29T02:41:54;99068.10;;;6.93;71.89
41706;BME280;27385;51.096;17.190;2024-03-29T02:44:47;99077.20;;;6.94;72.09
41706;BME280;27385;51.096;17.190;2024-03-29T02:47:40;99083.40;;;6.91;72.24
41706;BME280;27385;51.096;17.190;2024-03-29T02:50:32;99079.74;;;6.85;72.46
41706;BME280;27385;51.096;17.190;2024-03-29T02:53:25;99084.38;;;6.82;72.67
41706;BME280;27385;51.096;17.190;2024-03-29T02:56:15;99088.58;;;6.79;72.84
41706;BME280;27385;51.096;17.190;2024-03-29T02:59:12;99087.76;;;6.78;73.17
41706;BME280;27385;51.096;17.190;2024-03-29T03:02:05;99088.73;;;6.76;73.13
41706;BME280;27385;51.096;17.190;2024-03-29T03:04:58;99088.16;;;6.75;73.38
41706;BME280;27385;51.096;17.190;2024-03-29T03:07:50;99088.30;;;6.74;73.39
41706;BME280;27385;51.096;17.190;2024-03-29T03:10:59;99088.39;;;6.74;73.38
41706;BME280;27385;51.096;17.190;2024-03-29T03:13:50;99087.90;;;6.74;73.43
41706;BME280;27385;51.096;17.190;2024-03-29T03:16:44;99085.12;;;6.74;73.37
41706;BME280;27385;51.096;17.190;2024-03-29T03:19:40;99094.34;;;6.74;73.42
41706;BME280;27385;51.096;17.190;2024-03-29T03:22:31;99094.34;;;6.74;73.46
41706;BME280;27385;51.096;17.190;2024-03-29T03:25:22;99103.75;;;6.73;73.54
41706;BME280;27385;51.096;17.190;2024-03-29T03:28:14;99104.46;;;6.70;73.55
41706;BME280;27385;51.096;17.190;2024-03-29T03:31:09;99100.88;;;6.69;73.58
41706;BME280;27385;51.096;17.190;2024-03-29T03:34:00;99108.07;;;6.68;73.54
41706;BME280;27385;51.096;17.190;2024-03-29T03:36:51;99101.54;;;6.67;73.55
41706;BME280;27385;51.096;17.190;2024-03-29T03:39:42;99091.30;;;6.66;73.58
41706;BME280;27385;51.096;17.190;2024-03-29T03:42:34;99087.30;;;6.65;73.62
41706;BME280;27385;51.096;17.190;2024-03-29T03:45:27;99087.63;;;6.64;73.58
41706;BME280;27385;51.096;17.190;2024-03-29T03:48:53;99085.19;;;6.66;73.65
41706;BME280;27385;51.096;17.190;2024-03-29T03:51:41;99079.40;;;6.60;73.62
41706;BME280;27385;51.096;17.190;2024-03-29T03:54:31;99081.23;;;6.55;73.68
41706;BME280;27385;51.096;17.190;2024-03-29T03:57:21;99089.30;;;6.52;73.72
41706;BME280;27385;51.096;17.190;2024-03-29T04:00:13;99093.54;;;6.49;73.82
41706;BME280;27385;51.096;17.190;2024-03-29T04:03:01;99094.75;;;6.49;73.85
41706;BME280;27385;51.096;17.190;2024-03-29T04:05:51;99107.73;;;6.48;73.81
41706;BME280;27385;51.096;17.190;2024-03-29T04:08:39;99118.61;;;6.47;73.94
41706;BME280;27385;51.096;17.190;2024-03-29T04:11:27;99130.84;;;6.46;74.00
41706;BME280;27385;51.096;17.190;2024-03-29T04:14:16;99135.41;;;6.46;73.98
41706;BME280;27385;51.096;17.190;2024-03-29T04:17:08;99127.63;;;6.44;73.99
41706;BME280;27385;51.096;17.190;2024-03-29T04:19:57;99128.45;;;6.42;74.13
41706;BME280;27385;51.096;17.190;2024-03-29T04:22:45;99124.63;;;6.40;74.22
41706;BME280;27385;51.096;17.190;2024-03-29T04:25:33;99125.66;;;6.38;74.31
41706;BME280;27385;51.096;17.190;2024-03-29T04:28:20;99127.01;;;6.37;74.34
41706;BME280;27385;51.096;17.190;2024-03-29T04:31:08;99131.50;;;6.37;74.28
41706;BME280;27385;51.096;17.190;2024-03-29T04:33:56;99140.75;;;6.36;74.24
41706;BME280;27385;51.096;17.190;2024-03-29T04:36:44;99144.70;;;6.35;74.33
41706;BME280;27385;51.096;17.190;2024-03-29T04:39:32;99147.80;;;6.33;74.38
41706;BME280;27385;51.096;17.190;2024-03-29T04:42:20;99157.23;;;6.30;74.35
41706;BME280;27385;51.096;17.190;2024-03-29T04:45:09;99163.65;;;6.29;74.41
41706;BME280;27385;51.096;17.190;2024-03-29T04:47:57;99159.39;;;6.25;74.44
41706;BME280;27385;51.096;17.190;2024-03-29T04:50:45;99163.50;;;6.24;74.45
41706;BME280;27385;51.096;17.190;2024-03-29T04:53:32;99164.91;;;6.24;74.47
41706;BME280;27385;51.096;17.190;2024-03-29T04:56:21;99167.41;;;6.23;74.42
41706;BME280;27385;51.096;17.190;2024-03-29T04:59:09;99175.67;;;6.23;74.55
41706;BME280;27385;51.096;17.190;2024-03-29T05:01:59;99174.77;;;6.21;74.56
41706;BME280;27385;51.096;17.190;2024-03-29T05:04:47;99162.19;;;6.19;74.62
41706;BME280;27385;51.096;17.190;2024-03-29T05:07:35;99161.16;;;6.17;74.75
41706;BME280;27385;51.096;17.190;2024-03-29T05:10:22;99166.95;;;6.15;74.93
41706;BME280;27385;51.096;17.190;2024-03-29T05:13:10;99168.58;;;6.13;74.91
41706;BME280;27385;51.096;17.190;2024-03-29T05:15:58;99170.73;;;6.13;75.05
41706;BME280;27385;51.096;17.190;2024-03-29T05:18:46;99173.65;;;6.13;75.23
41706;BME280;27385;51.096;17.190;2024-03-29T05:21:34;99171.17;;;6.15;75.31
41706;BME280;27385;51.096;17.190;2024-03-29T05:24:21;99172.02;;;6.17;75.30
41706;BME280;27385;51.096;17.190;2024-03-29T05:27:08;99176.55;;;6.19;75.32
41706;BME280;27385;51.096;17.190;2024-03-29T05:29:56;99190.10;;;6.24;75.29
41706;BME280;27385;51.096;17.190;2024-03-29T05:32:44;99183.48;;;6.28;75.43
41706;BME280;27385;51.096;17.190;2024-03-29T05:35:34;99182.10;;;6.32;75.58
41706;BME280;27385;51.096;17.190;2024-03-29T05:38:22;99182.58;;;6.36;75.44
41706;BME280;27385;51.096;17.190;2024-03-29T05:41:10;99177.43;;;6.39;75.42
41706;BME280;27385;51.096;17.190;2024-03-29T05:43:58;99181.24;;;6.43;75.42
41706;BME280;27385;51.096;17.190;2024-03-29T05:46:48;99174.77;;;6.47;75.37
41706;BME280;27385;51.096;17.190;2024-03-29T05:49:36;99169.30;;;6.51;75.37
41706;BME280;27385;51.096;17.190;2024-03-29T05:52:24;99164.63;;;6.56;75.34
41706;BME280;27385;51.096;17.190;2024-03-29T05:55:12;99167.56;;;6.62;75.35
41706;BME280;27385;51.096;17.190;2024-03-29T05:58:00;99187.79;;;6.68;75.39
41706;BME280;27385;51.096;17.190;2024-03-29T06:00:48;99188.52;;;6.75;75.42
41706;BME280;27385;51.096;17.190;2024-03-29T06:03:36;99190.90;;;6.82;75.31
41706;BME280;27385;51.096;17.190;2024-03-29T06:06:23;99180.73;;;6.88;75.31
41706;BME280;27385;51.096;17.190;2024-03-29T06:09:11;99177.02;;;6.96;75.22
41706;BME280;27385;51.096;17.190;2024-03-29T06:11:59;99177.81;;;7.05;75.17
41706;BME280;27385;51.096;17.190;2024-03-29T06:14:47;99174.23;;;7.12;75.14
41706;BME280;27385;51.096;17.190;2024-03-29T06:17:53;99173.46;;;7.20;75.17
41706;BME280;27385;51.096;17.190;2024-03-29T06:20:42;99179.80;;;7.29;74.94
41706;BME280;27385;51.096;17.190;2024-03-29T06:23:30;99184.67;;;7.38;74.94
41706;BME280;27385;51.096;17.190;2024-03-29T06:26:18;99189.05;;;7.47;74.85
41706;BME280;27385;51.096;17.190;2024-03-29T06:29:08;99196.94;;;7.58;74.64
41706;BME280;27385;51.096;17.190;2024-03-29T06:31:57;99207.50;;;7.66;74.76
41706;BME280;27385;51.096;17.190;2024-03-29T06:34:46;99206.19;;;7.74;74.80
41706;BME280;27385;51.096;17.190;2024-03-29T06:37:34;99207.32;;;7.86;74.54
41706;BME280;27385;51.096;17.190;2024-03-29T06:40:22;99199.20;;;7.98;74.38
41706;BME280;27385;51.096;17.190;2024-03-29T06:43:11;99195.85;;;8.10;73.92
41706;BME280;27385;51.096;17.190;2024-03-29T06:46:01;99187.44;;;8.21;73.78
41706;BME280;27385;51.096;17.190;2024-03-29T06:48:50;99184.73;;;8.30;73.74
41706;BME280;27385;51.096;17.190;2024-03-29T06:51:40;99180.74;;;8.40;73.45
41706;BME280;27385;51.096;17.190;2024-03-29T06:54:29;99174.08;;;8.51;72.83
41706;BME280;27385;51.096;17.190;2024-03-29T06:57:20;99182.14;;;8.62;72.77
41706;BME280;27385;51.096;17.190;2024-03-29T07:00:14;99183.48;;;8.75;72.62
41706;BME280;27385;51.096;17.190;2024-03-29T07:03:02;99185.84;;;8.90;72.18
41706;BME280;27385;51.096;17.190;2024-03-29T07:05:51;99192.87;;;9.02;72.08
41706;BME280;27385;51.096;17.190;2024-03-29T07:08:39;99199.66;;;9.22;71.65
41706;BME280;27385;51.096;17.190;2024-03-29T07:11:27;99207.48;;;9.37;71.57
41706;BME280;27385;51.096;17.190;2024-03-29T07:14:15;99211.92;;;9.50;71.05
41706;BME280;27385;51.096;17.190;2024-03-29T07:17:04;99225.16;;;9.61;70.85
41706;BME280;27385;51.096;17.190;2024-03-29T07:19:52;99231.21;;;9.72;70.08
41706;BME280;27385;51.096;17.190;2024-03-29T07:22:41;99230.32;;;9.83;69.98
41706;BME280;27385;51.096;17.190;2024-03-29T07:25:31;99235.92;;;9.91;69.77
41706;BME280;27385;51.096;17.190;2024-03-29T07:28:19;99237.34;;;10.00;69.69
41706;BME280;27385;51.096;17.190;2024-03-29T07:31:07;99238.91;;;10.07;69.14
41706;BME280;27385;51.096;17.190;2024-03-29T07:33:55;99251.15;;;10.16;69.25
41706;BME280;27385;51.096;17.190;2024-03-29T07:36:44;99247.84;;;10.22;68.74
41706;BME280;27385;51.096;17.190;2024-03-29T07:39:34;99251.81;;;10.28;68.33
41706;BME280;27385;51.096;17.190;2024-03-29T07:42:36;99247.88;;;10.33;67.74
41706;BME280;27385;51.096;17.190;2024-03-29T07:45:25;99247.70;;;10.39;67.37
41706;BME280;27385;51.096;17.190;2024-03-29T07:48:17;99245.80;;;10.46;67.29
41706;BME280;27385;51.096;17.190;2024-03-29T07:51:07;99231.16;;;10.53;67.07
41706;BME280;27385;51.096;17.190;2024-03-29T07:53:58;99234.92;;;10.60;66.80
41706;BME280;27385;51.096;17.190;2024-03-29T07:56:48;99238.27;;;10.69;66.62
41706;BME280;27385;51.096;17.190;2024-03-29T07:59:40;99242.64;;;10.78;66.68
41706;BME280;27385;51.096;17.190;2024-03-29T08:02:35;99245.41;;;10.90;66.49
41706;BME280;27385;51.096;17.190;2024-03-29T08:05:35;99261.87;;;11.03;65.90
41706;BME280;27385;51.096;17.190;2024-03-29T08:08:31;99264.77;;;11.16;65.73
41706;BME280;27385;51.096;17.190;2024-03-29T08:11:57;99267.08;;;11.29;65.18
41706;BME280;27385;51.096;17.190;2024-03-29T08:14:48;99274.85;;;11.41;64.82
41706;BME280;27385;51.096;17.190;2024-03-29T08:17:42;99278.00;;;11.52;64.34
41706;BME280;27385;51.096;17.190;2024-03-29T08:20:36;99279.52;;;11.61;64.04
41706;BME280;27385;51.096;17.190;2024-03-29T08:23:27;99277.35;;;11.69;63.89
41706;BME280;27385;51.096;17.190;2024-03-29T08:26:29;99282.59;;;11.78;63.52
41706;BME280;27385;51.096;17.190;2024-03-29T08:29:23;99282.63;;;11.86;62.64
41706;BME280;27385;51.096;17.190;2024-03-29T08:32:12;99280.13;;;11.93;62.35
41706;BME280;27385;51.096;17.190;2024-03-29T08:35:02;99285.66;;;11.99;62.23
41706;BME280;27385;51.096;17.190;2024-03-29T08:37:53;99288.02;;;12.09;61.47
41706;BME280;27385;51.096;17.190;2024-03-29T08:40:46;99285.77;;;12.19;60.94
41706;BME280;27385;51.096;17.190;2024-03-29T08:43:38;99283.85;;;12.28;60.17
41706;BME280;27385;51.096;17.190;2024-03-29T08:46:29;99287.55;;;12.34;59.05
41706;BME280;27385;51.096;17.190;2024-03-29T08:49:17;99278.77;;;12.43;58.70
41706;BME280;27385;51.096;17.190;2024-03-29T08:52:10;99271.94;;;12.55;58.97
41706;BME280;27385;51.096;17.190;2024-03-29T08:55:02;99274.42;;;12.66;58.10
41706;BME280;27385;51.096;17.190;2024-03-29T08:57:51;99267.86;;;12.77;58.39
41706;BME280;27385;51.096;17.190;2024-03-29T09:00:42;99262.54;;;12.89;58.10
41706;BME280;27385;51.096;17.190;2024-03-29T09:03:38;99258.75;;;13.00;57.38
41706;BME280;27385;51.096;17.190;2024-03-29T09:06:33;99257.55;;;13.11;57.64
41706;BME280;27385;51.096;17.190;2024-03-29T09:09:24;99254.52;;;13.21;57.79
41706;BME280;27385;51.096;17.190;2024-03-29T09:12:16;99258.31;;;13.30;57.46
41706;BME280;27385;51.096;17.190;2024-03-29T09:15:06;99261.98;;;13.44;56.90
41706;BME280;27385;51.096;17.190;2024-03-29T09:18:04;99257.94;;;13.53;55.82
41706;BME280;27385;51.096;17.190;2024-03-29T09:24:58;99258.52;;;13.72;54.01
41706;BME280;27385;51.096;17.190;2024-03-29T09:28:09;99250.64;;;13.80;53.54
41706;BME280;27385;51.096;17.190;2024-03-29T09:31:16;99246.40;;;13.91;53.13
41706;BME280;27385;51.096;17.190;2024-03-29T09:34:29;99245.85;;;14.00;53.09
41706;BME280;27385;51.096;17.190;2024-03-29T09:37:37;99246.30;;;14.09;53.10
41706;BME280;27385;51.096;17.190;2024-03-29T09:40:34;99248.63;;;14.21;52.15
41706;BME280;27385;51.096;17.190;2024-03-29T09:43:25;99238.80;;;14.29;51.89
41706;BME280;27385;51.096;17.190;2024-03-29T09:46:39;99227.95;;;14.36;52.36
41706;BME280;27385;51.096;17.190;2024-03-29T09:49:45;99230.06;;;14.46;50.92
41706;BME280;27385;51.096;17.190;2024-03-29T09:52:43;99229.25;;;14.54;50.08
41706;BME280;27385;51.096;17.190;2024-03-29T09:55:32;99226.51;;;14.61;49.19
41706;BME280;27385;51.096;17.190;2024-03-29T09:58:23;99228.55;;;14.68;49.01
41706;BME280;27385;51.096;17.190;2024-03-29T10:01:13;99230.09;;;14.75;48.52
41706;BME280;27385;51.096;17.190;2024-03-29T10:04:02;99226.70;;;14.84;48.21
41706;BME280;27385;51.096;17.190;2024-03-29T10:06:52;99223.91;;;14.92;47.51
41706;BME280;27385;51.096;17.190;2024-03-29T10:10:00;99226.01;;;15.00;46.94
41706;BME280;27385;51.096;17.190;2024-03-29T10:12:50;99223.33;;;15.07;46.90
41706;BME280;27385;51.096;17.190;2024-03-29T10:15:39;99214.84;;;15.14;46.89
41706;BME280;27385;51.096;17.190;2024-03-29T10:18:35;99222.68;;;15.25;44.19
41706;BME280;27385;51.096;17.190;2024-03-29T10:21:35;99218.41;;;15.34;44.82
41706;BME280;27385;51.096;17.190;2024-03-29T10:24:59;99214.23;;;15.37;44.12
41706;BME280;27385;51.096;17.190;2024-03-29T10:27:50;99213.48;;;15.40;44.23
41706;BME280;27385;51.096;17.190;2024-03-29T10:31:00;99204.16;;;15.46;43.30
41706;BME280;27385;51.096;17.190;2024-03-29T10:34:02;99197.50;;;15.46;42.98
41706;BME280;27385;51.096;17.190;2024-03-29T10:36:56;99202.79;;;15.46;43.17
41706;BME280;27385;51.096;17.190;2024-03-29T10:39:52;99196.80;;;15.47;42.90
41706;BME280;27385;51.096;17.190;2024-03-29T10:42:44;99188.91;;;15.47;43.18
41706;BME280;27385;51.096;17.190;2024-03-29T10:45:43;99175.29;;;15.48;43.09
41706;BME280;27385;51.096;17.190;2024-03-29T10:48:35;99163.27;;;15.54;43.43
41706;BME280;27385;51.096;17.190;2024-03-29T10:51:28;99157.80;;;15.62;43.17
41706;BME280;27385;51.096;17.190;2024-03-29T10:54:21;99151.46;;;15.70;43.13
41706;BME280;27385;51.096;17.190;2024-03-29T10:57:25;99144.96;;;15.77;42.89
41706;BME280;27385;51.096;17.190;2024-03-29T11:00:20;99141.98;;;15.84;42.79
41706;BME280;27385;51.096;17.190;2024-03-29T11:03:16;99135.08;;;15.88;42.05
41706;BME280;27385;51.096;17.190;2024-03-29T11:06:11;99136.05;;;15.95;42.14
41706;BME280;27385;51.096;17.190;2024-03-29T11:09:04;99144.01;;;16.00;41.97
41706;BME280;27385;51.096;17.190;2024-03-29T11:12:03;99142.95;;;16.04;41.96
41706;BME280;27385;51.096;17.190;2024-03-29T11:15:03;99140.35;;;16.10;41.69
41706;BME280;27385;51.096;17.190;2024-03-29T11:17:59;99134.20;;;16.19;42.27
41706;BME280;27385;51.096;17.190;2024-03-29T11:20:56;99132.70;;;16.32;41.34
41706;BME280;27385;51.096;17.190;2024-03-29T11:23:52;99134.13;;;16.38;41.54
41706;BME280;27385;51.096;17.190;2024-03-29T11:26:46;99139.45;;;16.49;41.19
41706;BME280;27385;51.096;17.190;2024-03-29T11:29:43;99136.61;;;16.59;40.65
41706;BME280;27385;51.096;17.190;2024-03-29T11:32:39;99125.69;;;16.70;40.95
41706;BME280;27385;51.096;17.190;2024-03-29T11:35:31;99120.35;;;16.82;40.61
41706;BME280;27385;51.096;17.190;2024-03-29T11:38:41;99126.33;;;16.93;40.65
41706;BME280;27385;51.096;17.190;2024-03-29T11:41:33;99127.44;;;17.00;40.22
41706;BME280;27385;51.096;17.190;2024-03-29T11:44:26;99129.58;;;17.03;40.39
41706;BME280;27385;51.096;17.190;2024-03-29T11:47:34;99128.85;;;17.11;40.18
41706;BME280;27385;51.096;17.190;2024-03-29T11:50:30;99138.73;;;17.17;39.68
41706;BME280;27385;51.096;17.190;2024-03-29T11:53:24;99135.96;;;17.20;39.27
41706;BME280;27385;51.096;17.190;2024-03-29T11:56:21;99139.67;;;17.23;39.29
41706;BME280;27385;51.096;17.190;2024-03-29T11:59:22;99131.55;;;17.28;38.81
41706;BME280;27385;51.096;17.190;2024-03-29T12:02:14;99133.63;;;17.33;38.76
41706;BME280;27385;51.096;17.190;2024-03-29T12:05:13;99129.65;;;17.39;38.26
41706;BME280;27385;51.096;17.190;2024-03-29T12:08:10;99130.29;;;17.44;38.27
41706;BME280;27385;51.096;17.190;2024-03-29T12:11:03;99126.30;;;17.51;38.56
41706;BME280;27385;51.096;17.190;2024-03-29T12:13:54;99124.77;;;17.58;38.37
41706;BME280;27385;51.096;17.190;2024-03-29T12:16:48;99113.36;;;17.62;38.41
41706;BME280;27385;51.096;17.190;2024-03-29T12:19:47;99112.23;;;17.66;38.31
41706;BME280;27385;51.096;17.190;2024-03-29T12:22:40;99112.02;;;17.68;38.76
41706;BME280;27385;51.096;17.190;2024-03-29T12:25:33;99112.48;;;17.70;38.71
41706;BME280;27385;51.096;17.190;2024-03-29T12:28:28;99117.61;;;17.71;38.75
41706;BME280;27385;51.096;17.190;2024-03-29T12:31:21;99106.98;;;17.72;38.56
41706;BME280;27385;51.096;17.190;2024-03-29T12:34:22;99104.98;;;17.76;38.33
41706;BME280;27385;51.096;17.190;2024-03-29T12:37:12;99098.52;;;17.81;37.90
41706;BME280;27385;51.096;17.190;2024-03-29T12:40:04;99088.56;;;17.83;37.57
41706;BME280;27385;51.096;17.190;2024-03-29T12:43:04;99085.80;;;17.85;37.74
41706;BME280;27385;51.096;17.190;2024-03-29T12:45:55;99081.30;;;17.89;37.63
41706;BME280;27385;51.096;17.190;2024-03-29T12:48:46;99077.79;;;17.94;37.24
41706;BME280;27385;51.096;17.190;2024-03-29T12:51:39;99086.57;;;17.95;37.48
41706;BME280;27385;51.096;17.190;2024-03-29T12:54:29;99081.52;;;17.96;37.40
41706;BME280;27385;51.096;17.190;2024-03-29T12:57:21;99082.62;;;17.98;37.71
41706;BME280;27385;51.096;17.190;2024-03-29T13:00:14;99083.95;;;18.02;37.58
41706;BME280;27385;51.096;17.190;2024-03-29T13:03:07;99080.90;;;18.02;37.53
41706;BME280;27385;51.096;17.190;2024-03-29T13:05:58;99087.89;;;18.04;37.46
41706;BME280;27385;51.096;17.190;2024-03-29T13:08:49;99089.27;;;18.03;37.21
41706;BME280;27385;51.096;17.190;2024-03-29T13:11:41;99082.48;;;18.01;37.40
41706;BME280;27385;51.096;17.190;2024-03-29T13:14:32;99079.54;;;18.00;37.43
41706;BME280;27385;51.096;17.190;2024-03-29T13:17:25;99075.55;;;18.03;37.61
41706;BME280;27385;51.096;17.190;2024-03-29T13:20:17;99077.46;;;18.06;37.81
41706;BME280;27385;51.096;17.190;2024-03-29T13:23:09;99068.86;;;18.12;37.77
41706;BME280;27385;51.096;17.190;2024-03-29T13:26:01;99059.50;;;18.16;37.73
41706;BME280;27385;51.096;17.190;2024-03-29T13:28:53;99052.27;;;18.19;37.38
41706;BME280;27385;51.096;17.190;2024-03-29T13:31:45;99050.77;;;18.19;37.46
41706;BME280;27385;51.096;17.190;2024-03-29T13:34:37;99057.20;;;18.19;37.57
41706;BME280;27385;51.096;17.190;2024-03-29T13:37:29;99053.48;;;18.18;37.32
41706;BME280;27385;51.096;17.190;2024-03-29T13:40:21;99061.16;;;18.15;37.34
41706;BME280;27385;51.096;17.190;2024-03-29T13:43:14;99063.86;;;18.14;37.51
41706;BME280;27385;51.096;17.190;2024-03-29T13:46:05;99066.27;;;18.15;37.54
41706;BME280;27385;51.096;17.190;2024-03-29T13:48:59;99061.79;;;18.13;37.59
41706;BME280;27385;51.096;17.190;2024-03-29T13:51:50;99070.13;;;18.12;37.68
41706;BME280;27385;51.096;17.190;2024-03-29T13:54:45;99071.79;;;18.10;37.59
41706;BME280;27385;51.096;17.190;2024-03-29T13:57:40;99068.81;;;18.09;37.65
41706;BME280;27385;51.096;17.190;2024-03-29T14:00:34;99070.50;;;18.09;38.01
41706;BME280;27385;51.096;17.190;2024-03-29T14:03:26;99066.59;;;18.09;37.87
41706;BME280;27385;51.096;17.190;2024-03-29T14:06:18;99064.64;;;18.08;38.19
41706;BME280;27385;51.096;17.190;2024-03-29T14:09:10;99069.22;;;18.09;38.20
41706;BME280;27385;51.096;17.190;2024-03-29T14:12:03;99066.59;;;18.08;37.89
41706;BME280;27385;51.096;17.190;2024-03-29T14:14:56;99060.90;;;18.07;38.06
41706;BME280;27385;51.096;17.190;2024-03-29T14:17:48;99063.09;;;18.08;37.90
41706;BME280;27385;51.096;17.190;2024-03-29T14:20:41;99058.98;;;18.11;38.24
41706;BME280;27385;51.096;17.190;2024-03-29T14:23:33;99060.77;;;18.12;38.08
41706;BME280;27385;51.096;17.190;2024-03-29T14:26:25;99058.77;;;18.11;38.26
41706;BME280;27385;51.096;17.190;2024-03-29T14:29:17;99055.98;;;18.13;38.40
41706;BME280;27385;51.096;17.190;2024-03-29T14:32:14;99048.08;;;18.13;38.07
41706;BME280;27385;51.096;17.190;2024-03-29T14:35:10;99037.75;;;18.12;38.17
41706;BME280;27385;51.096;17.190;2024-03-29T14:38:02;99039.52;;;18.11;38.11
41706;BME280;27385;51.096;17.190;2024-03-29T14:40:55;99028.59;;;18.09;37.76
41706;BME280;27385;51.096;17.190;2024-03-29T14:43:46;99024.41;;;18.08;37.55
41706;BME280;27385;51.096;17.190;2024-03-29T14:46:40;99016.39;;;18.07;37.64
41706;BME280;27385;51.096;17.190;2024-03-29T14:49:30;99015.11;;;18.07;37.50
41706;BME280;27385;51.096;17.190;2024-03-29T14:52:21;99018.68;;;18.09;37.82
41706;BME280;27385;51.096;17.190;2024-03-29T14:55:12;99023.89;;;18.09;37.60
41706;BME280;27385;51.096;17.190;2024-03-29T14:58:04;99021.55;;;18.08;37.46
41706;BME280;27385;51.096;17.190;2024-03-29T15:00:56;99020.34;;;18.07;37.55
41706;BME280;27385;51.096;17.190;2024-03-29T15:03:47;99017.86;;;18.09;37.55
41706;BME280;27385;51.096;17.190;2024-03-29T15:06:39;99018.95;;;18.10;37.52
41706;BME280;27385;51.096;17.190;2024-03-29T15:09:30;99016.96;;;18.11;37.61
41706;BME280;27385;51.096;17.190;2024-03-29T15:12:21;99022.88;;;18.14;37.87